sensor_id;sensor_type;location;lat;lon;timestamp;P1;durP1;ratioP1;P2;durP2;ratioP2
52434;SDS011;38354;52.892;6.148;2023-04-24T03:07:29;17.95;;;12.30;;
52434;SDS011;38354;52.892;6.148;2023-04-24T03:09:56;18.27;;;13.48;;
52434;SDS011;38354;52.892;6.148;2023-04-24T03:12:23;18.20;;;12.13;;
52434;SDS011;38354;52.892;6.148;2023-04-24T03:14:49;20.45;;;12.75;;
52434;SDS011;38354;52.892;6.148;2023-04-24T03:17:14;19.90;;;13.98;;
52434;SDS011;38354;52.892;6.148;2023-04-24T03:19:40;17.42;;;12.35;;
52434;SDS011;38354;52.892;6.148;2023-04-24T03:22:06;18.33;;;11.88;;
52434;SDS011;38354;52.892;6.148;2023-04-24T03:24:31;18.23;;;12.25;;
52434;SDS011;38354;52.892;6.148;2023-04-24T03:26:57;18.67;;;12.80;;
52434;SDS011;38354;52.892;6.148;2023-04-24T03:29:23;19.05;;;12.98;;
52434;SDS011;38354;52.892;6.148;2023-04-24T03:31:48;19.70;;;12.70;;
52434;SDS011;38354;52.892;6.148;2023-04-24T03:34:14;18.95;;;12.98;;
52434;SDS011;38354;52.892;6.148;2023-04-24T03:36:42;18.52;;;12.73;;
52434;SDS011;38354;52.892;6.148;2023-04-24T03:39:08;18.50;;;13.32;;
52434;SDS011;38354;52.892;6.148;2023-04-24T03:41:33;19.67;;;13.32;;
52434;SDS011;38354;52.892;6.148;2023-04-24T03:43:59;24.40;;;14.40;;
52434;SDS011;38354;52.892;6.148;2023-04-24T03:46:25;23.70;;;14.50;;
52434;SDS011;38354;52.892;6.148;2023-04-24T03:48:50;21.00;;;13.55;;
52434;SDS011;38354;52.892;6.148;2023-04-24T03:51:16;24.00;;;14.63;;
52434;SDS011;38354;52.892;6.148;2023-04-24T03:53:42;25.40;;;15.30;;
52434;SDS011;38354;52.892;6.148;2023-04-24T03:56:07;25.70;;;15.48;;
52434;SDS011;38354;52.892;6.148;2023-04-24T03:58:33;23.60;;;14.98;;
52434;SDS011;38354;52.892;6.148;2023-04-24T04:00:59;23.15;;;14.25;;
52434;SDS011;38354;52.892;6.148;2023-04-24T04:03:25;23.25;;;14.82;;
52434;SDS011;38354;52.892;6.148;2023-04-24T04:05:50;24.80;;;14.20;;
52434;SDS011;38354;52.892;6.148;2023-04-24T04:08:16;26.38;;;15.38;;
52434;SDS011;38354;52.892;6.148;2023-04-24T04:10:42;22.17;;;12.77;;
52434;SDS011;38354;52.892;6.148;2023-04-24T04:13:07;16.80;;;10.55;;
52434;SDS011;38354;52.892;6.148;2023-04-24T04:15:33;16.77;;;10.70;;
52434;SDS011;38354;52.892;6.148;2023-04-24T04:17:59;16.55;;;10.27;;
52434;SDS011;38354;52.892;6.148;2023-04-24T04:20:24;14.95;;;9.35;;
52434;SDS011;38354;52.892;6.148;2023-04-24T04:22:50;14.30;;;8.43;;
52434;SDS011;38354;52.892;6.148;2023-04-24T04:25:16;15.02;;;8.60;;
52434;SDS011;38354;52.892;6.148;2023-04-24T04:27:44;10.48;;;5.50;;
52434;SDS011;38354;52.892;6.148;2023-04-24T04:30:10;11.40;;;6.95;;
52434;SDS011;38354;52.892;6.148;2023-04-24T04:32:36;10.73;;;6.38;;
52434;SDS011;38354;52.892;6.148;2023-04-24T04:35:02;10.57;;;6.13;;
52434;SDS011;38354;52.892;6.148;2023-04-24T04:37:31;11.80;;;7.00;;
52434;SDS011;38354;52.892;6.148;2023-04-24T04:39:58;14.95;;;8.40;;
52434;SDS011;38354;52.892;6.148;2023-04-24T04:42:34;17.25;;;9.43;;
52434;SDS011;38354;52.892;6.148;2023-04-24T04:45:00;19.50;;;10.45;;
52434;SDS011;38354;52.892;6.148;2023-04-24T04:47:27;24.20;;;11.38;;
52434;SDS011;38354;52.892;6.148;2023-04-24T04:49:53;24.48;;;11.38;;
52434;SDS011;38354;52.892;6.148;2023-04-24T04:52:19;18.60;;;9.63;;
52434;SDS011;38354;52.892;6.148;2023-04-24T04:54:49;23.92;;;11.75;;
52434;SDS011;38354;52.892;6.148;2023-04-24T04:57:15;15.50;;;9.05;;
52434;SDS011;38354;52.892;6.148;2023-04-24T04:59:41;25.98;;;12.10;;
52434;SDS011;38354;52.892;6.148;2023-04-24T05:02:07;25.88;;;12.43;;
52434;SDS011;38354;52.892;6.148;2023-04-24T05:04:33;21.58;;;10.85;;
52434;SDS011;38354;52.892;6.148;2023-04-24T05:06:59;21.65;;;10.88;;
52434;SDS011;38354;52.892;6.148;2023-04-24T05:09:25;24.70;;;12.77;;
52434;SDS011;38354;52.892;6.148;2023-04-24T05:11:52;25.42;;;13.05;;
52434;SDS011;38354;52.892;6.148;2023-04-24T05:14:18;19.40;;;9.85;;
52434;SDS011;38354;52.892;6.148;2023-04-24T05:16:44;22.67;;;11.35;;
52434;SDS011;38354;52.892;6.148;2023-04-24T05:19:09;19.27;;;10.90;;
52434;SDS011;38354;52.892;6.148;2023-04-24T05:21:36;20.67;;;10.70;;
52434;SDS011;38354;52.892;6.148;2023-04-24T05:24:04;18.08;;;10.57;;
52434;SDS011;38354;52.892;6.148;2023-04-24T05:26:30;15.60;;;9.50;;
52434;SDS011;38354;52.892;6.148;2023-04-24T05:28:55;17.02;;;9.07;;
52434;SDS011;38354;52.892;6.148;2023-04-24T05:31:21;11.60;;;7.40;;
52434;SDS011;38354;52.892;6.148;2023-04-24T05:34:00;9.50;;;6.22;;
52434;SDS011;38354;52.892;6.148;2023-04-24T05:36:26;13.10;;;7.65;;
52434;SDS011;38354;52.892;6.148;2023-04-24T05:38:52;14.55;;;6.82;;
52434;SDS011;38354;52.892;6.148;2023-04-24T05:41:17;14.27;;;6.68;;
52434;SDS011;38354;52.892;6.148;2023-04-24T05:43:43;10.27;;;5.55;;
52434;SDS011;38354;52.892;6.148;2023-04-24T05:46:08;12.13;;;6.38;;
52434;SDS011;38354;52.892;6.148;2023-04-24T05:48:34;9.38;;;5.50;;
52434;SDS011;38354;52.892;6.148;2023-04-24T05:51:00;8.25;;;4.60;;
52434;SDS011;38354;52.892;6.148;2023-04-24T05:53:25;8.65;;;4.85;;
52434;SDS011;38354;52.892;6.148;2023-04-24T05:55:51;11.77;;;5.20;;
52434;SDS011;38354;52.892;6.148;2023-04-24T05:58:17;10.70;;;5.80;;
52434;SDS011;38354;52.892;6.148;2023-04-24T06:00:43;13.85;;;6.68;;
52434;SDS011;38354;52.892;6.148;2023-04-24T06:03:11;14.25;;;7.57;;
52434;SDS011;38354;52.892;6.148;2023-04-24T06:05:36;16.23;;;7.90;;
52434;SDS011;38354;52.892;6.148;2023-04-24T06:08:02;17.05;;;7.57;;
52434;SDS011;38354;52.892;6.148;2023-04-24T06:10:28;19.08;;;8.50;;
52434;SDS011;38354;52.892;6.148;2023-04-24T06:12:53;17.80;;;9.20;;
52434;SDS011;38354;52.892;6.148;2023-04-24T06:15:21;12.65;;;8.05;;
52434;SDS011;38354;52.892;6.148;2023-04-24T06:17:47;19.63;;;8.93;;
52434;SDS011;38354;52.892;6.148;2023-04-24T06:20:12;19.40;;;9.00;;
52434;SDS011;38354;52.892;6.148;2023-04-24T06:22:38;16.30;;;8.18;;
52434;SDS011;38354;52.892;6.148;2023-04-24T06:25:05;11.68;;;7.03;;
52434;SDS011;38354;52.892;6.148;2023-04-24T06:27:31;16.35;;;7.22;;
52434;SDS011;38354;52.892;6.148;2023-04-24T06:29:56;12.60;;;6.68;;
52434;SDS011;38354;52.892;6.148;2023-04-24T06:32:22;9.07;;;5.55;;
52434;SDS011;38354;52.892;6.148;2023-04-24T06:34:49;9.98;;;5.60;;
52434;SDS011;38354;52.892;6.148;2023-04-24T06:37:16;8.95;;;5.68;;
52434;SDS011;38354;52.892;6.148;2023-04-24T06:39:41;7.85;;;4.65;;
52434;SDS011;38354;52.892;6.148;2023-04-24T06:42:07;9.25;;;5.25;;
52434;SDS011;38354;52.892;6.148;2023-04-24T06:44:34;12.15;;;5.97;;
52434;SDS011;38354;52.892;6.148;2023-04-24T06:47:05;12.20;;;6.05;;
52434;SDS011;38354;52.892;6.148;2023-04-24T06:49:35;15.52;;;5.85;;
52434;SDS011;38354;52.892;6.148;2023-04-24T06:52:01;11.90;;;5.90;;
52434;SDS011;38354;52.892;6.148;2023-04-24T06:54:27;7.65;;;4.28;;
52434;SDS011;38354;52.892;6.148;2023-04-24T06:56:52;11.15;;;5.13;;
52434;SDS011;38354;52.892;6.148;2023-04-24T06:59:18;11.32;;;4.60;;
52434;SDS011;38354;52.892;6.148;2023-04-24T07:01:44;9.63;;;7.60;;
52434;SDS011;38354;52.892;6.148;2023-04-24T07:04:10;8.80;;;4.70;;
52434;SDS011;38354;52.892;6.148;2023-04-24T07:06:37;10.20;;;3.50;;
52434;SDS011;38354;52.892;6.148;2023-04-24T07:09:02;6.40;;;3.33;;
52434;SDS011;38354;52.892;6.148;2023-04-24T07:11:28;7.53;;;4.00;;
52434;SDS011;38354;52.892;6.148;2023-04-24T07:13:54;4.40;;;2.50;;
52434;SDS011;38354;52.892;6.148;2023-04-24T07:16:20;6.30;;;2.65;;
52434;SDS011;38354;52.892;6.148;2023-04-24T07:18:46;6.80;;;2.90;;
52434;SDS011;38354;52.892;6.148;2023-04-24T07:21:12;7.20;;;2.60;;
52434;SDS011;38354;52.892;6.148;2023-04-24T07:23:37;9.82;;;3.42;;
52434;SDS011;38354;52.892;6.148;2023-04-24T07:26:03;7.43;;;3.78;;
52434;SDS011;38354;52.892;6.148;2023-04-24T07:28:29;11.07;;;5.50;;
52434;SDS011;38354;52.892;6.148;2023-04-24T07:30:59;15.05;;;6.43;;
52434;SDS011;38354;52.892;6.148;2023-04-24T07:33:28;18.25;;;7.32;;
52434;SDS011;38354;52.892;6.148;2023-04-24T07:35:53;19.58;;;9.13;;
52434;SDS011;38354;52.892;6.148;2023-04-24T07:38:19;18.70;;;8.95;;
52434;SDS011;38354;52.892;6.148;2023-04-24T07:40:48;27.80;;;11.52;;
52434;SDS011;38354;52.892;6.148;2023-04-24T07:43:14;26.30;;;12.45;;
52434;SDS011;38354;52.892;6.148;2023-04-24T07:45:39;25.88;;;13.27;;
52434;SDS011;38354;52.892;6.148;2023-04-24T07:48:06;25.42;;;12.27;;
52434;SDS011;38354;52.892;6.148;2023-04-24T07:50:34;24.45;;;12.05;;
52434;SDS011;38354;52.892;6.148;2023-04-24T07:53:01;33.20;;;13.90;;
52434;SDS011;38354;52.892;6.148;2023-04-24T07:55:27;29.23;;;12.98;;
52434;SDS011;38354;52.892;6.148;2023-04-24T07:57:52;27.45;;;14.45;;
52434;SDS011;38354;52.892;6.148;2023-04-24T08:00:18;23.15;;;12.32;;
52434;SDS011;38354;52.892;6.148;2023-04-24T08:02:44;20.98;;;10.88;;
52434;SDS011;38354;52.892;6.148;2023-04-24T08:05:10;26.77;;;13.73;;
52434;SDS011;38354;52.892;6.148;2023-04-24T08:07:36;25.40;;;13.88;;
52434;SDS011;38354;52.892;6.148;2023-04-24T08:10:01;30.13;;;15.35;;
52434;SDS011;38354;52.892;6.148;2023-04-24T08:12:28;39.10;;;17.17;;
52434;SDS011;38354;52.892;6.148;2023-04-24T08:14:54;38.20;;;18.25;;
52434;SDS011;38354;52.892;6.148;2023-04-24T08:17:20;33.97;;;17.13;;
52434;SDS011;38354;52.892;6.148;2023-04-24T08:19:45;32.03;;;16.63;;
52434;SDS011;38354;52.892;6.148;2023-04-24T08:22:16;39.95;;;17.52;;
52434;SDS011;38354;52.892;6.148;2023-04-24T08:24:42;32.50;;;17.77;;
52434;SDS011;38354;52.892;6.148;2023-04-24T08:27:08;30.23;;;15.93;;
52434;SDS011;38354;52.892;6.148;2023-04-24T08:29:35;29.75;;;15.50;;
52434;SDS011;38354;52.892;6.148;2023-04-24T08:32:01;23.80;;;13.48;;
52434;SDS011;38354;52.892;6.148;2023-04-24T08:34:27;24.52;;;14.15;;
52434;SDS011;38354;52.892;6.148;2023-04-24T08:36:52;28.55;;;13.77;;
52434;SDS011;38354;52.892;6.148;2023-04-24T08:39:19;24.35;;;12.35;;
52434;SDS011;38354;52.892;6.148;2023-04-24T08:41:45;26.70;;;13.32;;
52434;SDS011;38354;52.892;6.148;2023-04-24T08:44:12;23.65;;;12.23;;
52434;SDS011;38354;52.892;6.148;2023-04-24T08:46:40;22.17;;;11.10;;
52434;SDS011;38354;52.892;6.148;2023-04-24T08:49:07;22.00;;;11.27;;
52434;SDS011;38354;52.892;6.148;2023-04-24T08:51:33;30.10;;;12.18;;
52434;SDS011;38354;52.892;6.148;2023-04-24T08:53:59;23.13;;;11.07;;
52434;SDS011;38354;52.892;6.148;2023-04-24T08:56:25;22.88;;;11.50;;
52434;SDS011;38354;52.892;6.148;2023-04-24T08:58:53;20.33;;;10.68;;
52434;SDS011;38354;52.892;6.148;2023-04-24T09:01:19;19.55;;;9.18;;
52434;SDS011;38354;52.892;6.148;2023-04-24T09:03:46;22.15;;;10.40;;
52434;SDS011;38354;52.892;6.148;2023-04-24T09:06:14;20.05;;;8.75;;
52434;SDS011;38354;52.892;6.148;2023-04-24T09:08:42;19.00;;;9.30;;
52434;SDS011;38354;52.892;6.148;2023-04-24T09:11:10;17.38;;;8.20;;
52434;SDS011;38354;52.892;6.148;2023-04-24T09:13:36;19.60;;;7.97;;
52434;SDS011;38354;52.892;6.148;2023-04-24T09:16:03;23.45;;;8.73;;
52434;SDS011;38354;52.892;6.148;2023-04-24T09:18:28;17.35;;;7.25;;
52434;SDS011;38354;52.892;6.148;2023-04-24T09:21:02;14.60;;;6.82;;
52434;SDS011;38354;52.892;6.148;2023-04-24T09:23:31;23.48;;;6.97;;
52434;SDS011;38354;52.892;6.148;2023-04-24T09:25:58;12.93;;;7.00;;
52434;SDS011;38354;52.892;6.148;2023-04-24T09:28:26;14.52;;;6.75;;
52434;SDS011;38354;52.892;6.148;2023-04-24T09:31:06;18.40;;;6.20;;
52434;SDS011;38354;52.892;6.148;2023-04-24T09:33:32;9.60;;;4.43;;
52434;SDS011;38354;52.892;6.148;2023-04-24T09:35:57;12.80;;;5.05;;
52434;SDS011;38354;52.892;6.148;2023-04-24T09:38:34;14.45;;;5.20;;
52434;SDS011;38354;52.892;6.148;2023-04-24T09:41:04;12.07;;;5.10;;
52434;SDS011;38354;52.892;6.148;2023-04-24T09:43:32;25.02;;;6.00;;
52434;SDS011;38354;52.892;6.148;2023-04-24T09:45:59;10.23;;;5.32;;
52434;SDS011;38354;52.892;6.148;2023-04-24T09:48:30;15.40;;;5.65;;
52434;SDS011;38354;52.892;6.148;2023-04-24T09:51:01;11.57;;;6.60;;
52434;SDS011;38354;52.892;6.148;2023-04-24T09:53:29;15.38;;;5.10;;
52434;SDS011;38354;52.892;6.148;2023-04-24T09:55:58;12.88;;;4.53;;
52434;SDS011;38354;52.892;6.148;2023-04-24T09:58:28;12.32;;;4.93;;
52434;SDS011;38354;52.892;6.148;2023-04-24T10:00:54;19.58;;;4.85;;
52434;SDS011;38354;52.892;6.148;2023-04-24T10:03:24;14.73;;;5.22;;
52434;SDS011;38354;52.892;6.148;2023-04-24T10:05:53;14.52;;;4.18;;
52434;SDS011;38354;52.892;6.148;2023-04-24T10:08:19;10.57;;;3.60;;
52434;SDS011;38354;52.892;6.148;2023-04-24T10:10:45;16.15;;;3.55;;
52434;SDS011;38354;52.892;6.148;2023-04-24T10:13:12;11.48;;;4.38;;
52434;SDS011;38354;52.892;6.148;2023-04-24T10:15:39;8.20;;;4.57;;
52434;SDS011;38354;52.892;6.148;2023-04-24T10:18:06;15.93;;;3.75;;
52434;SDS011;38354;52.892;6.148;2023-04-24T10:20:34;15.90;;;7.18;;
52434;SDS011;38354;52.892;6.148;2023-04-24T10:23:01;11.02;;;3.00;;
52434;SDS011;38354;52.892;6.148;2023-04-24T10:25:27;14.93;;;3.85;;
52434;SDS011;38354;52.892;6.148;2023-04-24T10:27:54;11.02;;;2.90;;
52434;SDS011;38354;52.892;6.148;2023-04-24T10:30:25;14.68;;;3.85;;
52434;SDS011;38354;52.892;6.148;2023-04-24T10:32:55;12.70;;;3.55;;
52434;SDS011;38354;52.892;6.148;2023-04-24T10:35:21;13.35;;;3.38;;
52434;SDS011;38354;52.892;6.148;2023-04-24T10:37:54;13.23;;;3.95;;
52434;SDS011;38354;52.892;6.148;2023-04-24T10:40:40;13.20;;;4.03;;
52434;SDS011;38354;52.892;6.148;2023-04-24T10:43:08;12.30;;;3.58;;
52434;SDS011;38354;52.892;6.148;2023-04-24T10:45:38;11.95;;;3.30;;
52434;SDS011;38354;52.892;6.148;2023-04-24T10:48:04;15.98;;;3.88;;
52434;SDS011;38354;52.892;6.148;2023-04-24T10:50:42;12.10;;;5.70;;
52434;SDS011;38354;52.892;6.148;2023-04-24T10:53:19;15.15;;;3.20;;
52434;SDS011;38354;52.892;6.148;2023-04-24T10:55:47;13.40;;;6.78;;
52434;SDS011;38354;52.892;6.148;2023-04-24T10:58:15;10.85;;;2.63;;
52434;SDS011;38354;52.892;6.148;2023-04-24T11:00:42;8.60;;;2.25;;
52434;SDS011;38354;52.892;6.148;2023-04-24T11:03:23;12.25;;;2.25;;
52434;SDS011;38354;52.892;6.148;2023-04-24T11:05:58;12.98;;;2.72;;
52434;SDS011;38354;52.892;6.148;2023-04-24T11:08:39;6.28;;;2.03;;
52434;SDS011;38354;52.892;6.148;2023-04-24T11:11:12;13.73;;;2.60;;
52434;SDS011;38354;52.892;6.148;2023-04-24T11:16:28;10.05;;;2.83;;
52434;SDS011;38354;52.892;6.148;2023-04-24T11:21:45;10.02;;;2.28;;
52434;SDS011;38354;52.892;6.148;2023-04-24T11:24:23;10.40;;;2.83;;
52434;SDS011;38354;52.892;6.148;2023-04-24T11:26:50;10.75;;;2.13;;
52434;SDS011;38354;52.892;6.148;2023-04-24T11:35:02;9.23;;;4.55;;
52434;SDS011;38354;52.892;6.148;2023-04-24T11:37:37;8.90;;;2.22;;
52434;SDS011;38354;52.892;6.148;2023-04-24T11:40:08;9.13;;;2.75;;
52434;SDS011;38354;52.892;6.148;2023-04-24T11:42:36;7.43;;;2.45;;
52434;SDS011;38354;52.892;6.148;2023-04-24T11:45:10;8.57;;;4.13;;
52434;SDS011;38354;52.892;6.148;2023-04-24T11:47:37;8.88;;;2.03;;
52434;SDS011;38354;52.892;6.148;2023-04-24T11:50:05;9.48;;;3.53;;
52434;SDS011;38354;52.892;6.148;2023-04-24T11:52:33;8.65;;;1.80;;
52434;SDS011;38354;52.892;6.148;2023-04-24T11:55:03;7.97;;;1.17;;
52434;SDS011;38354;52.892;6.148;2023-04-24T11:57:29;8.10;;;6.50;;
52434;SDS011;38354;52.892;6.148;2023-04-24T12:00:03;7.47;;;3.35;;
52434;SDS011;38354;52.892;6.148;2023-04-24T12:02:33;4.38;;;2.13;;
52434;SDS011;38354;52.892;6.148;2023-04-24T12:04:58;4.32;;;1.35;;
52434;SDS011;38354;52.892;6.148;2023-04-24T12:07:24;6.70;;;2.88;;
52434;SDS011;38354;52.892;6.148;2023-04-24T12:09:57;6.97;;;1.10;;
52434;SDS011;38354;52.892;6.148;2023-04-24T12:12:27;5.63;;;2.70;;
52434;SDS011;38354;52.892;6.148;2023-04-24T12:14:54;5.88;;;1.30;;
52434;SDS011;38354;52.892;6.148;2023-04-24T12:17:27;4.03;;;1.60;;
52434;SDS011;38354;52.892;6.148;2023-04-24T12:20:00;6.55;;;1.33;;
52434;SDS011;38354;52.892;6.148;2023-04-24T12:22:28;6.75;;;2.25;;
52434;SDS011;38354;52.892;6.148;2023-04-24T12:25:09;7.30;;;4.68;;
52434;SDS011;38354;52.892;6.148;2023-04-24T12:27:35;4.28;;;1.50;;
52434;SDS011;38354;52.892;6.148;2023-04-24T12:30:02;12.73;;;8.52;;
52434;SDS011;38354;52.892;6.148;2023-04-24T12:32:29;6.43;;;1.80;;
52434;SDS011;38354;52.892;6.148;2023-04-24T12:34:55;4.25;;;1.40;;
52434;SDS011;38354;52.892;6.148;2023-04-24T12:37:25;6.43;;;1.95;;
52434;SDS011;38354;52.892;6.148;2023-04-24T12:39:58;16.25;;;8.75;;
52434;SDS011;38354;52.892;6.148;2023-04-24T12:42:43;11.57;;;8.25;;
52434;SDS011;38354;52.892;6.148;2023-04-24T12:45:11;7.47;;;4.00;;
52434;SDS011;38354;52.892;6.148;2023-04-24T12:47:37;9.68;;;1.30;;
52434;SDS011;38354;52.892;6.148;2023-04-24T12:50:05;9.23;;;3.10;;
52434;SDS011;38354;52.892;6.148;2023-04-24T12:52:32;4.55;;;1.15;;
52434;SDS011;38354;52.892;6.148;2023-04-24T12:55:00;5.40;;;1.20;;
52434;SDS011;38354;52.892;6.148;2023-04-24T12:57:27;5.28;;;1.63;;
52434;SDS011;38354;52.892;6.148;2023-04-24T12:59:54;5.07;;;1.10;;
52434;SDS011;38354;52.892;6.148;2023-04-24T13:02:22;6.30;;;3.08;;
52434;SDS011;38354;52.892;6.148;2023-04-24T13:04:48;8.20;;;4.07;;
52434;SDS011;38354;52.892;6.148;2023-04-24T13:07:15;8.50;;;1.65;;
52434;SDS011;38354;52.892;6.148;2023-04-24T13:09:41;10.75;;;7.38;;
52434;SDS011;38354;52.892;6.148;2023-04-24T13:12:08;6.05;;;1.83;;
52434;SDS011;38354;52.892;6.148;2023-04-24T13:14:34;7.65;;;2.25;;
52434;SDS011;38354;52.892;6.148;2023-04-24T13:17:00;8.57;;;3.25;;
52434;SDS011;38354;52.892;6.148;2023-04-24T13:19:26;17.95;;;11.00;;
52434;SDS011;38354;52.892;6.148;2023-04-24T13:21:56;10.38;;;6.10;;
52434;SDS011;38354;52.892;6.148;2023-04-24T13:24:22;6.75;;;2.10;;
52434;SDS011;38354;52.892;6.148;2023-04-24T13:26:52;7.68;;;3.20;;
52434;SDS011;38354;52.892;6.148;2023-04-24T13:29:18;8.45;;;1.50;;
52434;SDS011;38354;52.892;6.148;2023-04-24T13:31:43;6.55;;;2.50;;
52434;SDS011;38354;52.892;6.148;2023-04-24T13:34:10;8.80;;;2.38;;
52434;SDS011;38354;52.892;6.148;2023-04-24T13:36:35;9.23;;;2.05;;
52434;SDS011;38354;52.892;6.148;2023-04-24T13:39:01;7.78;;;1.48;;
52434;SDS011;38354;52.892;6.148;2023-04-24T13:41:29;7.22;;;2.15;;
52434;SDS011;38354;52.892;6.148;2023-04-24T13:43:55;5.30;;;1.85;;
52434;SDS011;38354;52.892;6.148;2023-04-24T13:46:21;9.00;;;3.28;;
52434;SDS011;38354;52.892;6.148;2023-04-24T13:48:47;9.70;;;1.70;;
52434;SDS011;38354;52.892;6.148;2023-04-24T13:51:12;13.40;;;2.70;;
52434;SDS011;38354;52.892;6.148;2023-04-24T13:53:38;7.97;;;2.00;;
52434;SDS011;38354;52.892;6.148;2023-04-24T13:56:04;17.17;;;3.47;;
52434;SDS011;38354;52.892;6.148;2023-04-24T13:58:31;11.95;;;7.18;;
52434;SDS011;38354;52.892;6.148;2023-04-24T14:00:57;11.80;;;6.47;;
52434;SDS011;38354;52.892;6.148;2023-04-24T14:03:23;13.27;;;3.95;;
52434;SDS011;38354;52.892;6.148;2023-04-24T14:05:49;14.25;;;4.72;;
52434;SDS011;38354;52.892;6.148;2023-04-24T14:08:14;26.35;;;14.75;;
52434;SDS011;38354;52.892;6.148;2023-04-24T14:10:40;12.93;;;3.15;;
52434;SDS011;38354;52.892;6.148;2023-04-24T14:13:07;14.75;;;2.33;;
52434;SDS011;38354;52.892;6.148;2023-04-24T14:15:33;19.42;;;2.70;;
52434;SDS011;38354;52.892;6.148;2023-04-24T14:18:00;15.55;;;8.05;;
52434;SDS011;38354;52.892;6.148;2023-04-24T14:20:26;10.65;;;2.85;;
52434;SDS011;38354;52.892;6.148;2023-04-24T14:22:51;11.68;;;2.30;;
52434;SDS011;38354;52.892;6.148;2023-04-24T14:25:18;11.43;;;3.60;;
52434;SDS011;38354;52.892;6.148;2023-04-24T14:27:44;11.70;;;2.58;;
52434;SDS011;38354;52.892;6.148;2023-04-24T14:30:10;8.45;;;2.58;;
52434;SDS011;38354;52.892;6.148;2023-04-24T14:32:38;13.80;;;3.42;;
52434;SDS011;38354;52.892;6.148;2023-04-24T14:35:04;9.65;;;6.35;;
52434;SDS011;38354;52.892;6.148;2023-04-24T14:37:31;9.43;;;2.53;;
52434;SDS011;38354;52.892;6.148;2023-04-24T14:39:57;17.63;;;12.05;;
52434;SDS011;38354;52.892;6.148;2023-04-24T14:42:23;10.13;;;2.92;;
52434;SDS011;38354;52.892;6.148;2023-04-24T14:44:49;7.53;;;3.10;;
52434;SDS011;38354;52.892;6.148;2023-04-24T14:47:15;11.73;;;3.92;;
52434;SDS011;38354;52.892;6.148;2023-04-24T14:49:42;11.73;;;5.38;;
52434;SDS011;38354;52.892;6.148;2023-04-24T14:52:09;13.55;;;2.42;;
52434;SDS011;38354;52.892;6.148;2023-04-24T14:54:35;17.63;;;3.17;;
52434;SDS011;38354;52.892;6.148;2023-04-24T14:57:00;10.18;;;3.15;;
52434;SDS011;38354;52.892;6.148;2023-04-24T14:59:27;9.98;;;2.88;;
52434;SDS011;38354;52.892;6.148;2023-04-24T15:01:53;14.52;;;2.83;;
52434;SDS011;38354;52.892;6.148;2023-04-24T15:04:23;22.55;;;13.65;;
52434;SDS011;38354;52.892;6.148;2023-04-24T15:06:51;11.05;;;5.68;;
52434;SDS011;38354;52.892;6.148;2023-04-24T15:09:18;13.80;;;3.22;;
52434;SDS011;38354;52.892;6.148;2023-04-24T15:11:45;5.57;;;3.60;;
52434;SDS011;38354;52.892;6.148;2023-04-24T15:14:11;7.95;;;3.83;;
52434;SDS011;38354;52.892;6.148;2023-04-24T15:16:37;16.73;;;11.95;;
52434;SDS011;38354;52.892;6.148;2023-04-24T15:19:03;12.32;;;3.10;;
52434;SDS011;38354;52.892;6.148;2023-04-24T15:21:28;22.67;;;5.10;;
52434;SDS011;38354;52.892;6.148;2023-04-24T15:23:54;15.23;;;4.88;;
52434;SDS011;38354;52.892;6.148;2023-04-24T15:26:20;18.70;;;3.88;;
52434;SDS011;38354;52.892;6.148;2023-04-24T15:28:46;14.07;;;4.07;;
52434;SDS011;38354;52.892;6.148;2023-04-24T15:31:12;14.50;;;5.78;;
52434;SDS011;38354;52.892;6.148;2023-04-24T15:33:38;27.50;;;16.90;;
52434;SDS011;38354;52.892;6.148;2023-04-24T15:36:04;17.75;;;4.03;;
52434;SDS011;38354;52.892;6.148;2023-04-24T15:38:30;9.25;;;3.28;;
52434;SDS011;38354;52.892;6.148;2023-04-24T15:40:59;31.02;;;18.83;;
52434;SDS011;38354;52.892;6.148;2023-04-24T15:43:30;13.50;;;3.40;;
52434;SDS011;38354;52.892;6.148;2023-04-24T15:45:59;12.40;;;4.50;;
52434;SDS011;38354;52.892;6.148;2023-04-24T15:48:25;12.00;;;3.08;;
52434;SDS011;38354;52.892;6.148;2023-04-24T15:50:56;18.08;;;9.68;;
52434;SDS011;38354;52.892;6.148;2023-04-24T15:53:23;18.85;;;4.57;;
52434;SDS011;38354;52.892;6.148;2023-04-24T15:55:50;18.20;;;3.50;;
52434;SDS011;38354;52.892;6.148;2023-04-24T15:58:17;12.73;;;3.47;;
52434;SDS011;38354;52.892;6.148;2023-04-24T16:00:44;15.70;;;3.42;;
52434;SDS011;38354;52.892;6.148;2023-04-24T16:03:10;16.33;;;5.25;;
52434;SDS011;38354;52.892;6.148;2023-04-24T16:05:36;6.22;;;2.67;;
52434;SDS011;38354;52.892;6.148;2023-04-24T16:08:02;12.45;;;5.10;;
52434;SDS011;38354;52.892;6.148;2023-04-24T16:10:27;17.58;;;3.45;;
52434;SDS011;38354;52.892;6.148;2023-04-24T16:12:53;12.18;;;3.72;;
52434;SDS011;38354;52.892;6.148;2023-04-24T16:15:20;13.15;;;3.58;;
52434;SDS011;38354;52.892;6.148;2023-04-24T16:17:46;9.65;;;4.68;;
52434;SDS011;38354;52.892;6.148;2023-04-24T16:20:12;15.10;;;3.55;;
52434;SDS011;38354;52.892;6.148;2023-04-24T16:22:38;16.27;;;4.20;;
52434;SDS011;38354;52.892;6.148;2023-04-24T16:25:05;13.23;;;4.55;;
52434;SDS011;38354;52.892;6.148;2023-04-24T16:27:31;17.83;;;5.13;;
52434;SDS011;38354;52.892;6.148;2023-04-24T16:29:58;16.58;;;4.15;;
52434;SDS011;38354;52.892;6.148;2023-04-24T16:32:24;17.55;;;5.40;;
52434;SDS011;38354;52.892;6.148;2023-04-24T16:34:49;20.00;;;4.28;;
52434;SDS011;38354;52.892;6.148;2023-04-24T16:37:16;17.65;;;4.22;;
52434;SDS011;38354;52.892;6.148;2023-04-24T16:39:42;17.17;;;3.92;;
52434;SDS011;38354;52.892;6.148;2023-04-24T16:42:09;10.98;;;4.28;;
52434;SDS011;38354;52.892;6.148;2023-04-24T16:44:37;13.30;;;4.63;;
52434;SDS011;38354;52.892;6.148;2023-04-24T16:47:06;15.85;;;5.10;;
52434;SDS011;38354;52.892;6.148;2023-04-24T16:49:32;18.27;;;4.60;;
52434;SDS011;38354;52.892;6.148;2023-04-24T16:51:58;10.50;;;4.20;;
52434;SDS011;38354;52.892;6.148;2023-04-24T16:54:24;15.10;;;4.78;;
52434;SDS011;38354;52.892;6.148;2023-04-24T16:56:51;16.08;;;4.22;;
52434;SDS011;38354;52.892;6.148;2023-04-24T16:59:17;15.65;;;4.93;;
52434;SDS011;38354;52.892;6.148;2023-04-24T17:01:43;17.73;;;5.05;;
52434;SDS011;38354;52.892;6.148;2023-04-24T17:04:09;16.90;;;4.82;;
52434;SDS011;38354;52.892;6.148;2023-04-24T17:06:35;13.15;;;4.63;;
52434;SDS011;38354;52.892;6.148;2023-04-24T17:09:01;21.40;;;6.20;;
52434;SDS011;38354;52.892;6.148;2023-04-24T17:11:27;14.48;;;5.30;;
52434;SDS011;38354;52.892;6.148;2023-04-24T17:13:53;14.82;;;3.97;;
52434;SDS011;38354;52.892;6.148;2023-04-24T17:16:19;17.75;;;4.68;;
52434;SDS011;38354;52.892;6.148;2023-04-24T17:18:45;14.93;;;4.82;;
52434;SDS011;38354;52.892;6.148;2023-04-24T17:21:10;14.00;;;4.57;;
52434;SDS011;38354;52.892;6.148;2023-04-24T17:23:36;15.48;;;4.60;;
52434;SDS011;38354;52.892;6.148;2023-04-24T17:26:02;18.67;;;5.28;;
52434;SDS011;38354;52.892;6.148;2023-04-24T17:28:31;19.25;;;6.15;;
52434;SDS011;38354;52.892;6.148;2023-04-24T17:30:57;20.00;;;6.35;;
52434;SDS011;38354;52.892;6.148;2023-04-24T17:33:23;22.85;;;5.65;;
52434;SDS011;38354;52.892;6.148;2023-04-24T17:35:50;17.50;;;5.47;;
52434;SDS011;38354;52.892;6.148;2023-04-24T17:38:16;30.48;;;10.85;;
52434;SDS011;38354;52.892;6.148;2023-04-24T17:40:43;24.80;;;8.95;;
52434;SDS011;38354;52.892;6.148;2023-04-24T17:43:10;40.15;;;11.52;;
52434;SDS011;38354;52.892;6.148;2023-04-24T17:45:37;17.98;;;5.93;;
52434;SDS011;38354;52.892;6.148;2023-04-24T17:48:03;29.75;;;10.55;;
52434;SDS011;38354;52.892;6.148;2023-04-24T17:50:29;20.98;;;7.07;;